sensor_id;sensor_type;location;lat;lon;timestamp;P1;durP1;ratioP1;P2;durP2;ratioP2
33862;SDS011;20158;51.436;-2.742;2023-04-06T00:02:12;5.38;;;4.88;;
33862;SDS011;20158;51.436;-2.742;2023-04-06T00:04:38;5.95;;;5.45;;
33862;SDS011;20158;51.436;-2.742;2023-04-06T00:07:04;5.30;;;4.80;;
33862;SDS011;20158;51.436;-2.742;2023-04-06T00:09:30;5.20;;;4.68;;
33862;SDS011;20158;51.436;-2.742;2023-04-06T00:11:56;5.60;;;5.10;;
33862;SDS011;20158;51.436;-2.742;2023-04-06T00:14:23;5.10;;;4.70;;
33862;SDS011;20158;51.436;-2.742;2023-04-06T00:16:49;4.95;;;4.47;;
33862;SDS011;20158;51.436;-2.742;2023-04-06T00:19:15;5.40;;;4.90;;
33862;SDS011;20158;51.436;-2.742;2023-04-06T00:21:41;4.72;;;4.32;;
33862;SDS011;20158;51.436;-2.742;2023-04-06T00:24:07;4.32;;;3.83;;
33862;SDS011;20158;51.436;-2.742;2023-04-06T00:26:33;5.22;;;4.03;;
33862;SDS011;20158;51.436;-2.742;2023-04-06T00:28:59;5.15;;;4.55;;
33862;SDS011;20158;51.436;-2.742;2023-04-06T00:31:25;4.30;;;3.97;;
33862;SDS011;20158;51.436;-2.742;2023-04-06T00:33:51;5.65;;;4.78;;
33862;SDS011;20158;51.436;-2.742;2023-04-06T00:36:17;5.40;;;4.95;;
33862;SDS011;20158;51.436;-2.742;2023-04-06T00:38:43;4.38;;;4.07;;
33862;SDS011;20158;51.436;-2.742;2023-04-06T00:41:09;4.65;;;4.20;;
33862;SDS011;20158;51.436;-2.742;2023-04-06T00:43:35;5.28;;;4.78;;
33862;SDS011;20158;51.436;-2.742;2023-04-06T00:46:01;4.57;;;4.18;;
33862;SDS011;20158;51.436;-2.742;2023-04-06T00:48:27;4.60;;;4.20;;
33862;SDS011;20158;51.436;-2.742;2023-04-06T00:50:55;5.13;;;4.72;;
33862;SDS011;20158;51.436;-2.742;2023-04-06T00:53:21;4.30;;;4.00;;
33862;SDS011;20158;51.436;-2.742;2023-04-06T00:55:47;3.95;;;3.65;;
33862;SDS011;20158;51.436;-2.742;2023-04-06T00:58:13;4.30;;;4.00;;
33862;SDS011;20158;51.436;-2.742;2023-04-06T01:00:46;4.35;;;3.95;;
33862;SDS011;20158;51.436;-2.742;2023-04-06T01:03:16;4.60;;;4.20;;
33862;SDS011;20158;51.436;-2.742;2023-04-06T01:05:43;4.40;;;4.10;;
33862;SDS011;20158;51.436;-2.742;2023-04-06T01:08:23;5.45;;;4.95;;
33862;SDS011;20158;51.436;-2.742;2023-04-06T01:10:54;4.95;;;4.55;;
33862;SDS011;20158;51.436;-2.742;2023-04-06T01:13:24;3.72;;;3.42;;
33862;SDS011;20158;51.436;-2.742;2023-04-06T01:15:56;4.30;;;4.00;;
33862;SDS011;20158;51.436;-2.742;2023-04-06T01:18:32;4.43;;;4.10;;
33862;SDS011;20158;51.436;-2.742;2023-04-06T01:21:12;4.78;;;4.38;;
33862;SDS011;20158;51.436;-2.742;2023-04-06T01:23:48;4.28;;;3.97;;
33862;SDS011;20158;51.436;-2.742;2023-04-06T01:26:21;4.82;;;4.43;;
33862;SDS011;20158;51.436;-2.742;2023-04-06T01:28:48;5.30;;;4.80;;
33862;SDS011;20158;51.436;-2.742;2023-04-06T01:31:41;4.53;;;4.23;;
33862;SDS011;20158;51.436;-2.742;2023-04-06T01:34:07;4.70;;;4.30;;
33862;SDS011;20158;51.436;-2.742;2023-04-06T01:36:33;4.70;;;4.30;;
33862;SDS011;20158;51.436;-2.742;2023-04-06T01:39:19;5.22;;;4.72;;
33862;SDS011;20158;51.436;-2.742;2023-04-06T01:41:46;5.68;;;4.97;;
33862;SDS011;20158;51.436;-2.742;2023-04-06T01:44:17;5.57;;;4.63;;
33862;SDS011;20158;51.436;-2.742;2023-04-06T01:46:48;4.43;;;4.10;;
33862;SDS011;20158;51.436;-2.742;2023-04-06T01:49:17;4.38;;;3.97;;
33862;SDS011;20158;51.436;-2.742;2023-04-06T01:51:48;3.85;;;3.58;;
33862;SDS011;20158;51.436;-2.742;2023-04-06T01:54:14;4.43;;;4.03;;
33862;SDS011;20158;51.436;-2.742;2023-04-06T01:56:59;4.25;;;3.85;;
33862;SDS011;20158;51.436;-2.742;2023-04-06T01:59:31;4.60;;;4.20;;
33862;SDS011;20158;51.436;-2.742;2023-04-06T02:02:01;3.80;;;3.50;;
33862;SDS011;20158;51.436;-2.742;2023-04-06T02:04:29;4.20;;;3.70;;
33862;SDS011;20158;51.436;-2.742;2023-04-06T02:07:08;3.58;;;3.28;;
33862;SDS011;20158;51.436;-2.742;2023-04-06T02:09:35;4.43;;;3.53;;
33862;SDS011;20158;51.436;-2.742;2023-04-06T02:12:04;3.47;;;2.90;;
33862;SDS011;20158;51.436;-2.742;2023-04-06T02:14:32;3.67;;;2.60;;
33862;SDS011;20158;51.436;-2.742;2023-04-06T02:16:59;3.63;;;3.03;;
33862;SDS011;20158;51.436;-2.742;2023-04-06T02:19:25;4.60;;;2.78;;
33862;SDS011;20158;51.436;-2.742;2023-04-06T02:21:52;3.55;;;2.42;;
33862;SDS011;20158;51.436;-2.742;2023-04-06T02:24:18;3.17;;;2.95;;
33862;SDS011;20158;51.436;-2.742;2023-04-06T02:26:44;2.25;;;1.92;;
33862;SDS011;20158;51.436;-2.742;2023-04-06T02:29:10;2.58;;;2.00;;
33862;SDS011;20158;51.436;-2.742;2023-04-06T02:31:37;4.57;;;2.00;;
33862;SDS011;20158;51.436;-2.742;2023-04-06T02:34:04;5.15;;;2.03;;
33862;SDS011;20158;51.436;-2.742;2023-04-06T02:36:31;2.25;;;1.48;;
33862;SDS011;20158;51.436;-2.742;2023-04-06T02:38:57;3.17;;;1.67;;
33862;SDS011;20158;51.436;-2.742;2023-04-06T02:41:25;2.15;;;1.55;;
33862;SDS011;20158;51.436;-2.742;2023-04-06T02:43:52;2.25;;;1.83;;
33862;SDS011;20158;51.436;-2.742;2023-04-06T02:46:32;3.15;;;1.90;;
33862;SDS011;20158;51.436;-2.742;2023-04-06T02:48:58;4.28;;;2.25;;
33862;SDS011;20158;51.436;-2.742;2023-04-06T02:51:27;4.03;;;1.40;;
33862;SDS011;20158;51.436;-2.742;2023-04-06T02:54:01;2.30;;;1.40;;
33862;SDS011;20158;51.436;-2.742;2023-04-06T02:56:27;2.92;;;1.10;;
33862;SDS011;20158;51.436;-2.742;2023-04-06T02:58:53;4.53;;;1.77;;
33862;SDS011;20158;51.436;-2.742;2023-04-06T03:01:24;1.58;;;1.20;;
33862;SDS011;20158;51.436;-2.742;2023-04-06T03:03:55;2.15;;;1.33;;
33862;SDS011;20158;51.436;-2.742;2023-04-06T03:06:24;2.35;;;1.02;;
33862;SDS011;20158;51.436;-2.742;2023-04-06T03:08:55;2.55;;;1.10;;
33862;SDS011;20158;51.436;-2.742;2023-04-06T03:11:21;3.50;;;1.50;;
33862;SDS011;20158;51.436;-2.742;2023-04-06T03:13:50;1.75;;;1.42;;
33862;SDS011;20158;51.436;-2.742;2023-04-06T03:16:15;2.53;;;1.00;;
33862;SDS011;20158;51.436;-2.742;2023-04-06T03:18:42;2.67;;;1.02;;
33862;SDS011;20158;51.436;-2.742;2023-04-06T03:21:11;2.85;;;1.60;;
33862;SDS011;20158;51.436;-2.742;2023-04-06T03:24:04;3.40;;;1.20;;
33862;SDS011;20158;51.436;-2.742;2023-04-06T03:26:30;1.92;;;1.05;;
33862;SDS011;20158;51.436;-2.742;2023-04-06T03:29:01;3.35;;;1.23;;
33862;SDS011;20158;51.436;-2.742;2023-04-06T03:31:30;2.67;;;1.20;;
33862;SDS011;20158;51.436;-2.742;2023-04-06T03:34:05;4.45;;;1.20;;
33862;SDS011;20158;51.436;-2.742;2023-04-06T03:36:34;2.60;;;1.08;;
33862;SDS011;20158;51.436;-2.742;2023-04-06T03:39:02;4.05;;;1.25;;
33862;SDS011;20158;51.436;-2.742;2023-04-06T03:41:31;2.97;;;1.17;;
33862;SDS011;20158;51.436;-2.742;2023-04-06T03:44:02;2.67;;;1.55;;
33862;SDS011;20158;51.436;-2.742;2023-04-06T03:46:30;4.40;;;1.58;;
33862;SDS011;20158;51.436;-2.742;2023-04-06T03:48:58;5.80;;;1.40;;
33862;SDS011;20158;51.436;-2.742;2023-04-06T03:51:24;3.47;;;1.33;;
33862;SDS011;20158;51.436;-2.742;2023-04-06T03:53:50;6.53;;;1.48;;
33862;SDS011;20158;51.436;-2.742;2023-04-06T03:56:16;5.18;;;1.80;;
33862;SDS011;20158;51.436;-2.742;2023-04-06T03:58:42;7.15;;;1.92;;
33862;SDS011;20158;51.436;-2.742;2023-04-06T04:01:10;9.90;;;1.60;;
33862;SDS011;20158;51.436;-2.742;2023-04-06T04:03:36;9.13;;;1.95;;
33862;SDS011;20158;51.436;-2.742;2023-04-06T04:06:02;6.00;;;1.55;;
33862;SDS011;20158;51.436;-2.742;2023-04-06T04:08:28;7.13;;;1.77;;
33862;SDS011;20158;51.436;-2.742;2023-04-06T04:10:54;8.77;;;1.95;;
33862;SDS011;20158;51.436;-2.742;2023-04-06T04:13:21;11.38;;;2.75;;
33862;SDS011;20158;51.436;-2.742;2023-04-06T04:15:50;7.47;;;1.80;;
33862;SDS011;20158;51.436;-2.742;2023-04-06T04:18:16;7.40;;;2.38;;
33862;SDS011;20158;51.436;-2.742;2023-04-06T04:20:42;6.53;;;1.95;;
33862;SDS011;20158;51.436;-2.742;2023-04-06T04:23:09;10.98;;;3.28;;
33862;SDS011;20158;51.436;-2.742;2023-04-06T04:25:35;10.43;;;4.15;;
33862;SDS011;20158;51.436;-2.742;2023-04-06T04:28:02;11.35;;;2.67;;
33862;SDS011;20158;51.436;-2.742;2023-04-06T04:30:29;10.60;;;2.78;;
33862;SDS011;20158;51.436;-2.742;2023-04-06T04:32:55;10.27;;;2.35;;
33862;SDS011;20158;51.436;-2.742;2023-04-06T04:35:22;8.85;;;2.63;;
33862;SDS011;20158;51.436;-2.742;2023-04-06T04:37:49;10.52;;;2.83;;
33862;SDS011;20158;51.436;-2.742;2023-04-06T04:40:14;10.13;;;2.38;;
33862;SDS011;20158;51.436;-2.742;2023-04-06T04:43:02;11.23;;;2.33;;
33862;SDS011;20158;51.436;-2.742;2023-04-06T04:45:31;9.23;;;2.78;;
33862;SDS011;20158;51.436;-2.742;2023-04-06T04:48:03;13.55;;;2.78;;
33862;SDS011;20158;51.436;-2.742;2023-04-06T04:50:42;10.43;;;3.40;;
33862;SDS011;20158;51.436;-2.742;2023-04-06T04:53:08;9.38;;;2.40;;
33862;SDS011;20158;51.436;-2.742;2023-04-06T04:55:35;15.90;;;2.33;;
33862;SDS011;20158;51.436;-2.742;2023-04-06T04:58:01;13.20;;;2.38;;
33862;SDS011;20158;51.436;-2.742;2023-04-06T05:00:46;12.60;;;3.25;;
33862;SDS011;20158;51.436;-2.742;2023-04-06T05:03:14;10.13;;;3.10;;
33862;SDS011;20158;51.436;-2.742;2023-04-06T05:05:59;16.77;;;3.92;;
33862;SDS011;20158;51.436;-2.742;2023-04-06T05:08:29;12.55;;;3.05;;
33862;SDS011;20158;51.436;-2.742;2023-04-06T05:10:56;15.48;;;2.72;;
33862;SDS011;20158;51.436;-2.742;2023-04-06T05:13:23;13.05;;;2.75;;
33862;SDS011;20158;51.436;-2.742;2023-04-06T05:15:51;11.95;;;3.22;;
33862;SDS011;20158;51.436;-2.742;2023-04-06T05:18:27;11.43;;;3.00;;
33862;SDS011;20158;51.436;-2.742;2023-04-06T05:20:54;10.38;;;3.67;;
33862;SDS011;20158;51.436;-2.742;2023-04-06T05:23:27;13.90;;;3.10;;
33862;SDS011;20158;51.436;-2.742;2023-04-06T05:25:56;12.15;;;3.30;;
33862;SDS011;20158;51.436;-2.742;2023-04-06T05:28:22;14.00;;;3.50;;
33862;SDS011;20158;51.436;-2.742;2023-04-06T05:30:48;11.18;;;3.50;;
33862;SDS011;20158;51.436;-2.742;2023-04-06T05:33:15;11.15;;;3.70;;
33862;SDS011;20158;51.436;-2.742;2023-04-06T05:36:01;14.40;;;4.85;;
33862;SDS011;20158;51.436;-2.742;2023-04-06T05:38:29;16.25;;;5.05;;
33862;SDS011;20158;51.436;-2.742;2023-04-06T05:40:59;13.02;;;4.38;;
33862;SDS011;20158;51.436;-2.742;2023-04-06T05:43:29;10.35;;;5.15;;
33862;SDS011;20158;51.436;-2.742;2023-04-06T05:45:58;20.83;;;5.47;;
33862;SDS011;20158;51.436;-2.742;2023-04-06T05:48:25;11.68;;;3.90;;
33862;SDS011;20158;51.436;-2.742;2023-04-06T05:50:51;11.85;;;4.88;;
33862;SDS011;20158;51.436;-2.742;2023-04-06T05:53:21;13.05;;;4.63;;
33862;SDS011;20158;51.436;-2.742;2023-04-06T05:55:53;11.82;;;4.90;;
33862;SDS011;20158;51.436;-2.742;2023-04-06T05:58:20;11.18;;;4.68;;
33862;SDS011;20158;51.436;-2.742;2023-04-06T06:00:49;13.55;;;5.97;;
33862;SDS011;20158;51.436;-2.742;2023-04-06T06:03:16;13.48;;;6.10;;
33862;SDS011;20158;51.436;-2.742;2023-04-06T06:05:48;13.57;;;7.07;;
33862;SDS011;20158;51.436;-2.742;2023-04-06T06:08:20;17.30;;;6.65;;
33862;SDS011;20158;51.436;-2.742;2023-04-06T06:10:48;14.90;;;7.82;;
33862;SDS011;20158;51.436;-2.742;2023-04-06T06:13:17;15.88;;;7.65;;
33862;SDS011;20158;51.436;-2.742;2023-04-06T06:15:44;10.18;;;6.53;;
33862;SDS011;20158;51.436;-2.742;2023-04-06T06:18:12;14.05;;;7.35;;
33862;SDS011;20158;51.436;-2.742;2023-04-06T06:20:39;15.95;;;6.63;;
33862;SDS011;20158;51.436;-2.742;2023-04-06T06:23:05;18.60;;;9.60;;
33862;SDS011;20158;51.436;-2.742;2023-04-06T06:25:32;23.98;;;9.30;;
33862;SDS011;20158;51.436;-2.742;2023-04-06T06:27:58;14.60;;;7.25;;
33862;SDS011;20158;51.436;-2.742;2023-04-06T06:30:26;21.02;;;8.40;;
33862;SDS011;20158;51.436;-2.742;2023-04-06T06:32:52;15.95;;;7.82;;
33862;SDS011;20158;51.436;-2.742;2023-04-06T06:35:21;16.58;;;7.82;;
33862;SDS011;20158;51.436;-2.742;2023-04-06T06:37:48;17.63;;;8.23;;
33862;SDS011;20158;51.436;-2.742;2023-04-06T06:40:18;16.27;;;7.43;;
33862;SDS011;20158;51.436;-2.742;2023-04-06T06:42:46;15.48;;;7.53;;
33862;SDS011;20158;51.436;-2.742;2023-04-06T06:45:23;17.00;;;7.57;;
33862;SDS011;20158;51.436;-2.742;2023-04-06T06:47:50;12.50;;;7.32;;
33862;SDS011;20158;51.436;-2.742;2023-04-06T06:50:16;13.73;;;7.40;;
33862;SDS011;20158;51.436;-2.742;2023-04-06T06:52:44;13.80;;;8.10;;
33862;SDS011;20158;51.436;-2.742;2023-04-06T06:55:10;14.38;;;6.40;;
33862;SDS011;20158;51.436;-2.742;2023-04-06T06:57:37;14.52;;;8.65;;
33862;SDS011;20158;51.436;-2.742;2023-04-06T07:00:05;11.45;;;5.95;;
33862;SDS011;20158;51.436;-2.742;2023-04-06T07:02:33;10.75;;;5.55;;
33862;SDS011;20158;51.436;-2.742;2023-04-06T07:05:01;9.57;;;5.80;;
33862;SDS011;20158;51.436;-2.742;2023-04-06T07:07:30;10.48;;;5.00;;
33862;SDS011;20158;51.436;-2.742;2023-04-06T07:09:58;10.55;;;5.07;;
33862;SDS011;20158;51.436;-2.742;2023-04-06T07:12:24;8.82;;;5.32;;
33862;SDS011;20158;51.436;-2.742;2023-04-06T07:14:51;9.52;;;4.45;;
33862;SDS011;20158;51.436;-2.742;2023-04-06T07:17:17;9.60;;;4.38;;
33862;SDS011;20158;51.436;-2.742;2023-04-06T07:19:43;11.45;;;4.53;;
33862;SDS011;20158;51.436;-2.742;2023-04-06T07:22:09;11.00;;;4.22;;
33862;SDS011;20158;51.436;-2.742;2023-04-06T07:24:35;11.73;;;4.22;;
33862;SDS011;20158;51.436;-2.742;2023-04-06T07:27:01;10.73;;;5.32;;
33862;SDS011;20158;51.436;-2.742;2023-04-06T07:29:27;7.97;;;4.47;;
33862;SDS011;20158;51.436;-2.742;2023-04-06T07:31:54;6.82;;;3.75;;
33862;SDS011;20158;51.436;-2.742;2023-04-06T07:34:21;8.05;;;3.80;;
33862;SDS011;20158;51.436;-2.742;2023-04-06T07:36:50;8.63;;;4.05;;
33862;SDS011;20158;51.436;-2.742;2023-04-06T07:39:19;8.43;;;3.40;;
33862;SDS011;20158;51.436;-2.742;2023-04-06T07:41:46;12.82;;;3.50;;
33862;SDS011;20158;51.436;-2.742;2023-04-06T07:44:12;8.07;;;3.40;;
33862;SDS011;20158;51.436;-2.742;2023-04-06T07:46:38;8.52;;;3.55;;
33862;SDS011;20158;51.436;-2.742;2023-04-06T07:49:05;10.98;;;3.85;;
33862;SDS011;20158;51.436;-2.742;2023-04-06T07:51:32;7.80;;;3.33;;
33862;SDS011;20158;51.436;-2.742;2023-04-06T07:54:01;8.50;;;3.60;;
33862;SDS011;20158;51.436;-2.742;2023-04-06T07:56:27;7.82;;;4.22;;
33862;SDS011;20158;51.436;-2.742;2023-04-06T07:58:53;10.02;;;4.30;;
33862;SDS011;20158;51.436;-2.742;2023-04-06T08:01:21;7.72;;;3.83;;
33862;SDS011;20158;51.436;-2.742;2023-04-06T08:03:48;9.85;;;4.70;;
33862;SDS011;20158;51.436;-2.742;2023-04-06T08:06:14;10.57;;;4.70;;
33862;SDS011;20158;51.436;-2.742;2023-04-06T08:08:41;7.97;;;5.55;;
33862;SDS011;20158;51.436;-2.742;2023-04-06T08:11:07;8.68;;;4.65;;
33862;SDS011;20158;51.436;-2.742;2023-04-06T08:13:36;11.52;;;5.60;;
33862;SDS011;20158;51.436;-2.742;2023-04-06T08:16:02;7.13;;;4.78;;
33862;SDS011;20158;51.436;-2.742;2023-04-06T08:18:28;11.10;;;5.78;;
33862;SDS011;20158;51.436;-2.742;2023-04-06T08:20:55;12.05;;;4.95;;
33862;SDS011;20158;51.436;-2.742;2023-04-06T08:23:22;8.88;;;5.00;;
33862;SDS011;20158;51.436;-2.742;2023-04-06T08:25:48;8.00;;;4.60;;
33862;SDS011;20158;51.436;-2.742;2023-04-06T08:28:14;9.27;;;4.75;;
33862;SDS011;20158;51.436;-2.742;2023-04-06T08:30:40;7.07;;;4.63;;
33862;SDS011;20158;51.436;-2.742;2023-04-06T08:33:10;9.48;;;4.55;;
33862;SDS011;20158;51.436;-2.742;2023-04-06T08:35:36;9.48;;;5.07;;
33862;SDS011;20158;51.436;-2.742;2023-04-06T08:38:02;8.00;;;4.07;;
33862;SDS011;20158;51.436;-2.742;2023-04-06T08:40:27;6.72;;;4.18;;
33862;SDS011;20158;51.436;-2.742;2023-04-06T08:42:56;7.30;;;4.03;;
33862;SDS011;20158;51.436;-2.742;2023-04-06T08:45:27;8.43;;;5.18;;
33862;SDS011;20158;51.436;-2.742;2023-04-06T08:47:53;8.85;;;4.70;;
33862;SDS011;20158;51.436;-2.742;2023-04-06T08:50:21;6.05;;;4.13;;
33862;SDS011;20158;51.436;-2.742;2023-04-06T08:52:49;8.55;;;3.85;;
33862;SDS011;20158;51.436;-2.742;2023-04-06T08:55:15;6.60;;;3.78;;
33862;SDS011;20158;51.436;-2.742;2023-04-06T08:57:42;7.18;;;3.50;;
33862;SDS011;20158;51.436;-2.742;2023-04-06T09:00:09;7.65;;;4.45;;
33862;SDS011;20158;51.436;-2.742;2023-04-06T09:02:38;6.95;;;3.35;;
33862;SDS011;20158;51.436;-2.742;2023-04-06T09:05:07;9.02;;;4.07;;
33862;SDS011;20158;51.436;-2.742;2023-04-06T09:07:35;6.38;;;3.17;;
33862;SDS011;20158;51.436;-2.742;2023-04-06T09:10:02;7.88;;;4.22;;
33862;SDS011;20158;51.436;-2.742;2023-04-06T09:12:30;9.00;;;3.90;;
33862;SDS011;20158;51.436;-2.742;2023-04-06T09:14:57;7.80;;;3.40;;
33862;SDS011;20158;51.436;-2.742;2023-04-06T09:17:26;7.40;;;4.05;;
33862;SDS011;20158;51.436;-2.742;2023-04-06T09:19:58;6.93;;;3.13;;
33862;SDS011;20158;51.436;-2.742;2023-04-06T09:22:25;8.40;;;3.63;;
33862;SDS011;20158;51.436;-2.742;2023-04-06T09:24:52;4.78;;;3.53;;
33862;SDS011;20158;51.436;-2.742;2023-04-06T09:27:35;8.52;;;4.90;;
33862;SDS011;20158;51.436;-2.742;2023-04-06T09:30:03;8.80;;;3.25;;
33862;SDS011;20158;51.436;-2.742;2023-04-06T09:32:31;9.32;;;3.92;;
33862;SDS011;20158;51.436;-2.742;2023-04-06T09:35:09;13.18;;;4.53;;
33862;SDS011;20158;51.436;-2.742;2023-04-06T09:37:35;8.10;;;4.00;;
33862;SDS011;20158;51.436;-2.742;2023-04-06T09:40:02;7.60;;;3.10;;
33862;SDS011;20158;51.436;-2.742;2023-04-06T09:42:30;7.40;;;2.83;;
33862;SDS011;20158;51.436;-2.742;2023-04-06T09:44:56;6.03;;;2.38;;
33862;SDS011;20158;51.436;-2.742;2023-04-06T09:47:22;5.35;;;2.80;;
33862;SDS011;20158;51.436;-2.742;2023-04-06T09:49:53;6.53;;;3.25;;
33862;SDS011;20158;51.436;-2.742;2023-04-06T09:52:24;5.78;;;3.20;;
33862;SDS011;20158;51.436;-2.742;2023-04-06T09:54:52;5.00;;;2.55;;
33862;SDS011;20158;51.436;-2.742;2023-04-06T10:00:11;8.07;;;3.20;;
33862;SDS011;20158;51.436;-2.742;2023-04-06T10:03:01;8.63;;;4.27;;
33862;SDS011;20158;51.436;-2.742;2023-04-06T10:08:14;7.45;;;3.35;;
33862;SDS011;20158;51.436;-2.742;2023-04-06T10:10:41;5.57;;;2.88;;
33862;SDS011;20158;51.436;-2.742;2023-04-06T10:13:09;8.32;;;3.85;;
33862;SDS011;20158;51.436;-2.742;2023-04-06T10:15:37;9.82;;;3.67;;
33862;SDS011;20158;51.436;-2.742;2023-04-06T10:18:04;12.55;;;4.72;;
33862;SDS011;20158;51.436;-2.742;2023-04-06T10:23:09;10.52;;;4.40;;
33862;SDS011;20158;51.436;-2.742;2023-04-06T10:25:54;7.50;;;3.05;;
33862;SDS011;20158;51.436;-2.742;2023-04-06T10:28:22;8.88;;;3.30;;
33862;SDS011;20158;51.436;-2.742;2023-04-06T10:30:48;12.43;;;4.30;;
33862;SDS011;20158;51.436;-2.742;2023-04-06T10:33:15;9.30;;;2.85;;
33862;SDS011;20158;51.436;-2.742;2023-04-06T10:35:42;10.48;;;3.75;;
33862;SDS011;20158;51.436;-2.742;2023-04-06T10:38:09;10.48;;;2.97;;
33862;SDS011;20158;51.436;-2.742;2023-04-06T10:40:38;6.72;;;2.80;;
33862;SDS011;20158;51.436;-2.742;2023-04-06T10:43:18;10.80;;;2.92;;
33862;SDS011;20158;51.436;-2.742;2023-04-06T10:45:45;8.20;;;2.45;;
33862;SDS011;20158;51.436;-2.742;2023-04-06T10:48:21;9.00;;;4.00;;
33862;SDS011;20158;51.436;-2.742;2023-04-06T10:50:50;11.13;;;4.18;;
33862;SDS011;20158;51.436;-2.742;2023-04-06T10:53:24;8.35;;;2.65;;
33862;SDS011;20158;51.436;-2.742;2023-04-06T10:55:53;8.52;;;2.58;;
33862;SDS011;20158;51.436;-2.742;2023-04-06T10:58:23;5.60;;;2.20;;
33862;SDS011;20158;51.436;-2.742;2023-04-06T11:00:50;5.57;;;2.40;;
33862;SDS011;20158;51.436;-2.742;2023-04-06T11:03:17;9.77;;;2.90;;
33862;SDS011;20158;51.436;-2.742;2023-04-06T11:05:52;6.57;;;1.60;;
33862;SDS011;20158;51.436;-2.742;2023-04-06T11:08:22;9.75;;;2.20;;
33862;SDS011;20158;51.436;-2.742;2023-04-06T11:11:03;6.35;;;2.53;;
33862;SDS011;20158;51.436;-2.742;2023-04-06T11:13:44;10.30;;;3.03;;
33862;SDS011;20158;51.436;-2.742;2023-04-06T11:16:38;11.82;;;2.67;;
33862;SDS011;20158;51.436;-2.742;2023-04-06T11:19:04;10.82;;;3.33;;
33862;SDS011;20158;51.436;-2.742;2023-04-06T11:21:41;9.90;;;3.00;;
33862;SDS011;20158;51.436;-2.742;2023-04-06T11:26:47;7.40;;;1.90;;
33862;SDS011;20158;51.436;-2.742;2023-04-06T11:29:20;6.95;;;2.50;;
33862;SDS011;20158;51.436;-2.742;2023-04-06T11:31:48;6.85;;;2.72;;
33862;SDS011;20158;51.436;-2.742;2023-04-06T11:34:20;8.30;;;2.78;;
33862;SDS011;20158;51.436;-2.742;2023-04-06T11:36:49;8.32;;;2.50;;
33862;SDS011;20158;51.436;-2.742;2023-04-06T11:39:21;7.07;;;2.63;;
33862;SDS011;20158;51.436;-2.742;2023-04-06T11:42:01;7.00;;;2.80;;
33862;SDS011;20158;51.436;-2.742;2023-04-06T11:47:08;8.40;;;2.75;;
33862;SDS011;20158;51.436;-2.742;2023-04-06T11:49:38;4.93;;;2.30;;
33862;SDS011;20158;51.436;-2.742;2023-04-06T11:52:16;7.40;;;2.17;;
33862;SDS011;20158;51.436;-2.742;2023-04-06T11:54:43;5.57;;;2.45;;
33862;SDS011;20158;51.436;-2.742;2023-04-06T11:57:09;8.02;;;2.92;;
33862;SDS011;20158;51.436;-2.742;2023-04-06T11:59:35;5.97;;;1.73;;
33862;SDS011;20158;51.436;-2.742;2023-04-06T12:02:01;9.32;;;2.17;;
33862;SDS011;20158;51.436;-2.742;2023-04-06T12:04:28;9.25;;;2.80;;
33862;SDS011;20158;51.436;-2.742;2023-04-06T12:06:55;7.85;;;2.28;;
33862;SDS011;20158;51.436;-2.742;2023-04-06T12:09:21;8.85;;;2.28;;
33862;SDS011;20158;51.436;-2.742;2023-04-06T12:11:47;8.18;;;2.28;;
33862;SDS011;20158;51.436;-2.742;2023-04-06T12:14:13;7.95;;;2.05;;
33862;SDS011;20158;51.436;-2.742;2023-04-06T12:16:39;5.97;;;2.35;;
33862;SDS011;20158;51.436;-2.742;2023-04-06T12:19:06;10.00;;;2.80;;
33862;SDS011;20158;51.436;-2.742;2023-04-06T12:21:32;9.27;;;3.20;;
33862;SDS011;20158;51.436;-2.742;2023-04-06T12:24:00;9.68;;;2.78;;
33862;SDS011;20158;51.436;-2.742;2023-04-06T12:26:26;6.22;;;2.50;;
33862;SDS011;20158;51.436;-2.742;2023-04-06T12:28:53;6.13;;;2.35;;
33862;SDS011;20158;51.436;-2.742;2023-04-06T12:31:22;5.55;;;2.45;;
33862;SDS011;20158;51.436;-2.742;2023-04-06T12:33:50;6.78;;;2.17;;
33862;SDS011;20158;51.436;-2.742;2023-04-06T12:36:18;4.80;;;2.15;;
33862;SDS011;20158;51.436;-2.742;2023-04-06T12:38:46;7.03;;;1.60;;
33862;SDS011;20158;51.436;-2.742;2023-04-06T12:41:13;6.30;;;2.35;;
33862;SDS011;20158;51.436;-2.742;2023-04-06T12:43:43;4.40;;;1.70;;
33862;SDS011;20158;51.436;-2.742;2023-04-06T12:46:10;5.07;;;1.70;;
33862;SDS011;20158;51.436;-2.742;2023-04-06T12:48:36;5.47;;;2.17;;
33862;SDS011;20158;51.436;-2.742;2023-04-06T12:51:03;5.25;;;1.80;;
33862;SDS011;20158;51.436;-2.742;2023-04-06T12:53:30;7.05;;;1.90;;
33862;SDS011;20158;51.436;-2.742;2023-04-06T12:55:57;4.35;;;1.90;;
33862;SDS011;20158;51.436;-2.742;2023-04-06T12:58:23;7.32;;;1.98;;
33862;SDS011;20158;51.436;-2.742;2023-04-06T13:00:52;8.05;;;2.58;;
33862;SDS011;20158;51.436;-2.742;2023-04-06T13:03:18;3.53;;;1.55;;
33862;SDS011;20158;51.436;-2.742;2023-04-06T13:05:45;7.78;;;2.13;;
33862;SDS011;20158;51.436;-2.742;2023-04-06T13:08:12;9.73;;;2.60;;
33862;SDS011;20158;51.436;-2.742;2023-04-06T13:10:43;7.05;;;2.15;;
33862;SDS011;20158;51.436;-2.742;2023-04-06T13:13:09;3.47;;;1.58;;
33862;SDS011;20158;51.436;-2.742;2023-04-06T13:15:36;5.65;;;2.28;;
33862;SDS011;20158;51.436;-2.742;2023-04-06T13:18:02;3.25;;;1.60;;
33862;SDS011;20158;51.436;-2.742;2023-04-06T13:20:29;3.40;;;1.50;;
33862;SDS011;20158;51.436;-2.742;2023-04-06T13:22:56;4.30;;;1.73;;
33862;SDS011;20158;51.436;-2.742;2023-04-06T13:25:22;4.20;;;1.10;;
33862;SDS011;20158;51.436;-2.742;2023-04-06T13:27:48;6.40;;;1.95;;
33862;SDS011;20158;51.436;-2.742;2023-04-06T13:30:14;4.65;;;1.27;;
33862;SDS011;20158;51.436;-2.742;2023-04-06T13:32:40;4.88;;;1.65;;
33862;SDS011;20158;51.436;-2.742;2023-04-06T13:35:06;2.30;;;1.08;;
33862;SDS011;20158;51.436;-2.742;2023-04-06T13:37:33;2.95;;;1.13;;
33862;SDS011;20158;51.436;-2.742;2023-04-06T13:40:01;2.85;;;0.95;;
33862;SDS011;20158;51.436;-2.742;2023-04-06T13:42:30;4.32;;;0.90;;
33862;SDS011;20158;51.436;-2.742;2023-04-06T13:44:56;4.43;;;1.40;;
33862;SDS011;20158;51.436;-2.742;2023-04-06T13:47:22;3.47;;;0.90;;
33862;SDS011;20158;51.436;-2.742;2023-04-06T13:49:51;1.58;;;0.88;;
33862;SDS011;20158;51.436;-2.742;2023-04-06T13:52:21;3.03;;;0.90;;
33862;SDS011;20158;51.436;-2.742;2023-04-06T13:54:48;2.72;;;1.10;;
33862;SDS011;20158;51.436;-2.742;2023-04-06T13:57:14;3.60;;;1.10;;
33862;SDS011;20158;51.436;-2.742;2023-04-06T13:59:40;3.85;;;1.30;;
33862;SDS011;20158;51.436;-2.742;2023-04-06T14:02:07;2.28;;;1.40;;
33862;SDS011;20158;51.436;-2.742;2023-04-06T14:04:35;4.97;;;1.70;;
33862;SDS011;20158;51.436;-2.742;2023-04-06T14:07:01;4.07;;;1.45;;
33862;SDS011;20158;51.436;-2.742;2023-04-06T14:09:28;3.30;;;1.55;;
33862;SDS011;20158;51.436;-2.742;2023-04-06T14:11:55;7.07;;;2.05;;
33862;SDS011;20158;51.436;-2.742;2023-04-06T14:14:21;5.90;;;1.85;;
33862;SDS011;20158;51.436;-2.742;2023-04-06T14:16:48;4.07;;;1.75;;
33862;SDS011;20158;51.436;-2.742;2023-04-06T14:19:15;5.20;;;1.35;;
33862;SDS011;20158;51.436;-2.742;2023-04-06T14:21:46;4.22;;;2.22;;
33862;SDS011;20158;51.436;-2.742;2023-04-06T14:24:12;3.35;;;1.35;;
33862;SDS011;20158;51.436;-2.742;2023-04-06T14:26:40;3.63;;;1.25;;
33862;SDS011;20158;51.436;-2.742;2023-04-06T14:29:09;4.82;;;1.10;;
33862;SDS011;20158;51.436;-2.742;2023-04-06T14:31:35;3.67;;;0.90;;
33862;SDS011;20158;51.436;-2.742;2023-04-06T14:34:02;6.55;;;1.70;;
33862;SDS011;20158;51.436;-2.742;2023-04-06T14:36:32;5.70;;;1.75;;
33862;SDS011;20158;51.436;-2.742;2023-04-06T14:39:03;3.88;;;1.30;;
33862;SDS011;20158;51.436;-2.742;2023-04-06T14:41:30;4.50;;;1.70;;
33862;SDS011;20158;51.436;-2.742;2023-04-06T14:43:56;4.63;;;1.38;;
33862;SDS011;20158;51.436;-2.742;2023-04-06T14:46:22;2.83;;;1.17;;
33862;SDS011;20158;51.436;-2.742;2023-04-06T14:48:48;5.68;;;1.60;;
33862;SDS011;20158;51.436;-2.742;2023-04-06T14:51:14;4.47;;;1.45;;
33862;SDS011;20158;51.436;-2.742;2023-04-06T14:53:42;3.88;;;1.30;;